Time;durP1;ratioP1;P1;durP2;ratioP2;P2;SDS_P1;SDS_P2;PMS_P1;PMS_P2;Temp;Humidity;BMP_temperature;BMP_pressure;BME280_temperature;BME280_humidity;BME280_pressure;Samples;Min_cycle;Max_cycle;Signal;HPM_P1;HPM_P2
2024/01/27 00:00:16;;;;;;;210.27;109.15;;;5.00;1.00;;;;;;5121052;28;20043;-76
2024/01/27 00:02:44;;;;;;;216.70;113.75;;;4.80;1.00;;;;;;5097858;28;20472;-75
2024/01/27 00:05:11;;;;;;;219.57;111.85;;;4.80;1.00;;;;;;5116024;28;20112;-74
2024/01/27 00:07:40;;;;;;;219.48;111.82;;;4.80;99.90;;;;;;5114436;28;20035;-74
2024/01/27 00:10:08;;;;;;;203.43;106.10;;;4.70;1.00;;;;;;5116574;28;20036;-76
2024/01/27 00:12:37;;;;;;;171.30;88.38;;;4.60;1.00;;;;;;5122850;28;20060;-75
2024/01/27 00:15:07;;;;;;;191.52;101.05;;;4.70;1.00;;;;;;5125508;28;20039;-75
2024/01/27 00:17:35;;;;;;;191.18;101.30;;;4.80;1.00;;;;;;5112197;28;20040;-76
2024/01/27 00:20:03;;;;;;;208.82;106.30;;;4.90;1.00;;;;;;5085742;28;20055;-76
2024/01/27 00:22:31;;;;;;;200.50;105.75;;;5.00;1.00;;;;;;5104491;28;20134;-76
2024/01/27 00:25:07;;;;;;;207.60;107.65;;;5.00;1.00;;;;;;5105454;28;20043;-76
2024/01/27 00:27:37;;;;;;;170.50;89.53;;;5.00;1.00;;;;;;5109338;28;20036;-75
2024/01/27 00:30:05;;;;;;;174.40;90.47;;;5.00;1.00;;;;;;5106301;28;20098;-75
2024/01/27 00:32:33;;;;;;;149.63;78.90;;;5.00;1.00;;;;;;5104679;28;20042;-76
2024/01/27 00:35:01;;;;;;;156.57;84.53;;;4.90;99.90;;;;;;5104741;28;20056;-75
2024/01/27 00:37:28;;;;;;;164.98;87.40;;;4.90;1.00;;;;;;5103360;28;20494;-76
2024/01/27 00:39:58;;;;;;;163.65;87.13;;;4.90;1.00;;;;;;5104853;28;20058;-76
2024/01/27 00:42:27;;;;;;;150.20;78.70;;;4.90;99.90;;;;;;5085826;28;20046;-75
2024/01/27 00:44:54;;;;;;;145.30;78.75;;;4.90;1.00;;;;;;5102874;28;20044;-76
2024/01/27 00:47:22;;;;;;;148.10;80.63;;;5.00;1.00;;;;;;5127590;28;20040;-76
2024/01/27 00:49:49;;;;;;;154.45;82.20;;;5.10;99.90;;;;;;5110283;28;20093;-77
2024/01/27 00:52:16;;;;;;;169.63;87.50;;;5.10;1.00;;;;;;5102968;28;20478;-75
2024/01/27 00:54:44;;;;;;;170.68;91.43;;;5.10;99.90;;;;;;5100885;28;20036;-77
2024/01/27 00:57:11;;;;;;;169.85;93.03;;;5.10;99.90;;;;;;5105474;28;20058;-75
2024/01/27 00:59:40;;;;;;;177.77;95.22;;;5.10;1.00;;;;;;5109295;28;20035;-74
2024/01/27 01:04:59;;;;;;;156.63;83.63;;;5.20;99.90;;;;;;5084953;28;20121;-74
2024/01/27 01:07:27;;;;;;;168.70;90.82;;;5.10;99.90;;;;;;5090399;28;20048;-75
2024/01/27 01:09:54;;;;;;;162.43;86.07;;;5.20;1.00;;;;;;5105242;28;20584;-75
2024/01/27 01:12:22;;;;;;;163.65;87.78;;;5.20;1.00;;;;;;5103083;28;20092;-77
2024/01/27 01:14:51;;;;;;;164.57;86.38;;;5.20;75.90;;;;;;5106729;28;20042;-75
2024/01/27 01:17:18;;;;;;;165.27;91.88;;;5.20;1.00;;;;;;5103517;28;20040;-77
2024/01/27 01:19:46;;;;;;;163.68;86.68;;;5.10;79.80;;;;;;5102124;28;20097;-76
2024/01/27 01:22:13;;;;;;;168.85;88.78;;;5.10;51.40;;;;;;5106925;28;20065;-75
2024/01/27 01:24:43;;;;;;;138.95;74.70;;;5.10;1.00;;;;;;5106997;28;20032;-74
2024/01/27 01:27:10;;;;;;;119.60;64.32;;;5.00;46.00;;;;;;5100727;28;20048;-75
2024/01/27 01:29:37;;;;;;;143.93;79.28;;;5.10;99.90;;;;;;5102332;28;20051;-76
2024/01/27 01:32:07;;;;;;;136.23;72.45;;;5.20;99.90;;;;;;5101945;28;20040;-76
2024/01/27 01:34:34;;;;;;;132.07;72.75;;;5.30;99.90;;;;;;5081340;28;20052;-75
2024/01/27 01:37:02;;;;;;;140.65;77.32;;;5.30;40.80;;;;;;5101603;28;20085;-74
2024/01/27 01:39:30;;;;;;;136.95;73.68;;;5.30;99.90;;;;;;5101217;28;20105;-74
2024/01/27 01:41:57;;;;;;;143.57;79.75;;;5.40;99.90;;;;;;5100340;28;20556;-75
2024/01/27 01:44:30;;;;;;;145.73;81.10;;;5.40;99.90;;;;;;5102547;28;20093;-75
2024/01/27 01:46:58;;;;;;;147.98;82.13;;;5.30;99.90;;;;;;5083492;28;20092;-75
2024/01/27 01:49:27;;;;;;;148.63;82.88;;;5.30;1.00;;;;;;5103878;28;20039;-76
2024/01/27 01:51:55;;;;;;;134.70;73.50;;;5.30;1.00;;;;;;5106234;28;20048;-74
2024/01/27 01:54:27;;;;;;;132.77;72.63;;;5.30;99.90;;;;;;5103555;28;20028;-74
2024/01/27 01:56:56;;;;;;;136.77;78.47;;;5.30;52.70;;;;;;5101539;28;20487;-75
2024/01/27 01:59:23;;;;;;;132.75;76.13;;;5.30;99.90;;;;;;5104181;28;20051;-73
2024/01/27 02:01:51;;;;;;;150.98;83.72;;;5.20;99.90;;;;;;5083952;28;20143;-75
2024/01/27 02:04:18;;;;;;;160.65;89.97;;;5.20;1.00;;;;;;5102626;28;20044;-75
2024/01/27 02:06:47;;;;;;;151.85;85.47;;;5.20;1.00;;;;;;5106133;28;20031;-74
2024/01/27 02:09:14;;;;;;;144.32;84.65;;;5.20;1.00;;;;;;5102296;28;20032;-75
2024/01/27 02:11:42;;;;;;;143.13;83.18;;;5.20;1.00;;;;;;5103247;28;20055;-75
2024/01/27 02:14:10;;;;;;;145.48;88.53;;;5.10;1.00;;;;;;5102844;28;20522;-75
2024/01/27 02:16:37;;;;;;;141.40;83.65;;;5.20;1.00;;;;;;5105568;28;20039;-75
2024/01/27 02:19:04;;;;;;;157.25;95.03;;;5.20;1.00;;;;;;5105888;28;20627;-75
2024/01/27 02:21:32;;;;;;;86.25;52.45;;;5.30;1.00;;;;;;5103847;28;20527;-77
2024/01/27 02:24:01;;;;;;;94.18;56.42;;;5.30;1.00;;;;;;5099577;28;20542;-74
2024/01/27 02:26:30;;;;;;;78.63;45.78;;;5.50;1.00;;;;;;5108248;28;20020;-74
2024/01/27 02:28:57;;;;;;;28.73;16.98;;;5.70;1.00;;;;;;5102427;28;20040;-74
2024/01/27 02:31:24;;;;;;;19.70;9.57;;;6.10;99.90;;;;;;5099350;28;20056;-74
2024/01/27 02:33:52;;;;;;;19.45;9.50;;;7.20;1.00;;;;;;5125291;28;20036;-75
2024/01/27 02:36:19;;;;;;;18.35;8.65;;;7.60;99.90;;;;;;5112349;28;20052;-74
2024/01/27 02:38:47;;;;;;;14.95;7.45;;;7.70;1.00;;;;;;5127948;28;20050;-75
2024/01/27 02:41:14;;;;;;;17.70;8.07;;;7.80;1.00;;;;;;5126564;28;20044;-75
2024/01/27 02:43:43;;;;;;;16.65;8.27;;;7.80;1.00;;;;;;5122476;28;20556;-75
2024/01/27 02:46:15;;;;;;;14.57;6.82;;;7.80;1.00;;;;;;5101945;28;20043;-76
2024/01/27 02:48:43;;;;;;;12.02;6.10;;;7.90;99.90;;;;;;5099264;28;20101;-76
2024/01/27 02:51:11;;;;;;;14.18;6.63;;;7.90;99.90;;;;;;5103658;28;20063;-75
2024/01/27 02:53:38;;;;;;;12.85;6.30;;;7.90;99.90;;;;;;5121754;28;20015;-76
2024/01/27 02:56:08;;;;;;;13.45;6.55;;;8.00;99.60;;;;;;5121654;28;20059;-75
2024/01/27 02:58:36;;;;;;;12.93;6.57;;;7.90;16.00;;;;;;5096460;28;20044;-75
2024/01/27 03:01:05;;;;;;;12.75;6.80;;;7.90;38.40;;;;;;5116399;28;20056;-76
2024/01/27 03:03:32;;;;;;;12.77;6.43;;;7.90;1.00;;;;;;5118709;28;20043;-74
2024/01/27 03:06:01;;;;;;;12.95;6.75;;;7.90;1.00;;;;;;5118553;28;20067;-75
2024/01/27 03:08:29;;;;;;;10.77;5.28;;;7.80;1.00;;;;;;5118046;28;20044;-75
2024/01/27 03:10:56;;;;;;;13.32;6.65;;;7.90;1.00;;;;;;5104019;28;20093;-75
2024/01/27 03:13:23;;;;;;;12.15;5.63;;;7.90;1.00;;;;;;5096821;28;20044;-76
2024/01/27 03:15:54;;;;;;;10.25;5.22;;;7.90;1.00;;;;;;5104030;28;20036;-74
2024/01/27 03:18:24;;;;;;;9.90;4.53;;;8.00;99.90;;;;;;5112922;28;20056;-74
2024/01/27 03:20:53;;;;;;;10.55;4.72;;;8.00;99.90;;;;;;5113878;28;20442;-76
2024/01/27 03:23:24;;;;;;;9.35;4.10;;;8.00;99.90;;;;;;5116415;28;20039;-75
2024/01/27 03:25:51;;;;;;;9.15;4.18;;;8.10;97.20;;;;;;5114786;28;20044;-76
2024/01/27 03:28:19;;;;;;;7.07;3.28;;;8.00;1.00;;;;;;5102629;28;20035;-75
2024/01/27 03:30:46;;;;;;;6.80;3.30;;;8.00;1.00;;;;;;5101412;28;20054;-75
2024/01/27 03:33:14;;;;;;;7.03;3.13;;;8.10;1.00;;;;;;5081189;28;20123;-74
2024/01/27 03:35:43;;;;;;;4.93;2.28;;;8.10;1.00;;;;;;5102265;28;20043;-75
2024/01/27 03:38:10;;;;;;;8.02;3.13;;;8.10;1.00;;;;;;5099817;28;20043;-74
2024/01/27 03:40:38;;;;;;;7.35;3.38;;;8.10;1.00;;;;;;5100582;28;20043;-74
2024/01/27 03:43:05;;;;;;;6.20;2.67;;;8.10;1.00;;;;;;5114170;28;20044;-75
2024/01/27 03:45:33;;;;;;;6.38;2.50;;;8.10;1.00;;;;;;5122981;28;20039;-75
2024/01/27 03:48:00;;;;;;;5.00;2.05;;;8.10;1.00;;;;;;5124161;28;20031;-75
2024/01/27 03:50:28;;;;;;;6.72;2.80;;;8.00;1.00;;;;;;5121084;28;20273;-76
2024/01/27 03:52:56;;;;;;;7.25;2.35;;;8.10;1.00;;;;;;5121632;28;20059;-75
2024/01/27 03:55:24;;;;;;;6.88;2.45;;;8.10;1.00;;;;;;5122702;28;20040;-74
2024/01/27 03:57:51;;;;;;;6.13;2.17;;;8.10;1.00;;;;;;5109030;28;20101;-75
2024/01/27 04:00:19;;;;;;;6.45;2.28;;;8.10;1.00;;;;;;5106304;28;20047;-74
2024/01/27 04:02:47;;;;;;;8.52;2.55;;;8.10;1.00;;;;;;5098771;28;20125;-74
2024/01/27 04:05:14;;;;;;;8.05;2.53;;;8.00;1.00;;;;;;5098601;28;20056;-74
2024/01/27 04:07:42;;;;;;;6.00;2.22;;;8.00;1.00;;;;;;5105586;28;20048;-75
2024/01/27 04:10:11;;;;;;;7.07;3.67;;;8.00;1.00;;;;;;5103925;28;20093;-75
2024/01/27 04:12:39;;;;;;;7.05;2.47;;;8.00;1.00;;;;;;5112067;28;20042;-76
2024/01/27 04:15:07;;;;;;;5.75;2.92;;;7.90;1.00;;;;;;5119299;28;20046;-75
2024/01/27 04:17:35;;;;;;;6.32;2.45;;;7.90;1.00;;;;;;5102630;28;20066;-74
2024/01/27 04:20:02;;;;;;;5.78;2.47;;;7.80;1.00;;;;;;5124130;28;20083;-75
2024/01/27 04:22:29;;;;;;;7.10;2.50;;;7.60;1.00;;;;;;5119644;28;20043;-76
2024/01/27 04:24:57;;;;;;;6.05;2.30;;;7.50;1.00;;;;;;5118188;28;20066;-75
2024/01/27 04:27:25;;;;;;;5.72;2.72;;;7.50;1.00;;;;;;5107132;28;20070;-74
2024/01/27 04:29:53;;;;;;;7.63;3.42;;;7.40;1.00;;;;;;5102723;28;20048;-75
2024/01/27 04:32:21;;;;;;;8.63;3.72;;;7.30;1.00;;;;;;5113294;28;20047;-76
2024/01/27 04:34:49;;;;;;;11.02;4.82;;;7.20;1.00;;;;;;5109317;28;20095;-76
2024/01/27 04:37:16;;;;;;;11.88;4.60;;;7.10;1.00;;;;;;5111246;28;20074;-74
2024/01/27 04:39:44;;;;;;;14.00;5.20;;;7.00;99.90;;;;;;5103942;28;20614;-74
2024/01/27 04:42:11;;;;;;;10.25;4.90;;;6.90;99.90;;;;;;5099259;28;20119;-75
2024/01/27 04:44:42;;;;;;;11.40;5.35;;;6.90;99.90;;;;;;5101707;28;20510;-75
2024/01/27 04:47:10;;;;;;;6.10;3.28;;;6.90;99.90;;;;;;5104933;28;20072;-74
2024/01/27 04:49:37;;;;;;;9.38;4.32;;;6.90;35.30;;;;;;5105647;28;20123;-75
2024/01/27 04:52:06;;;;;;;9.75;5.35;;;6.90;58.60;;;;;;5102074;28;20625;-75
2024/01/27 04:54:33;;;;;;;10.77;6.10;;;6.80;99.90;;;;;;5103835;28;20047;-75
2024/01/27 04:57:01;;;;;;;13.15;6.28;;;6.70;99.90;;;;;;5085719;28;20119;-75
2024/01/27 04:59:28;;;;;;;13.43;7.03;;;6.60;99.90;;;;;;5103433;28;20158;-76
2024/01/27 05:01:56;;;;;;;13.57;7.00;;;6.50;1.00;;;;;;5106492;28;20449;-75
2024/01/27 05:04:26;;;;;;;13.68;6.78;;;6.50;1.00;;;;;;5105239;28;20118;-76
2024/01/27 05:06:54;;;;;;;14.25;7.47;;;6.40;1.00;;;;;;5104981;28;20047;-76
2024/01/27 05:09:21;;;;;;;15.13;7.43;;;6.40;1.00;;;;;;5107991;28;20491;-75
2024/01/27 05:11:51;;;;;;;16.08;7.68;;;6.40;1.00;;;;;;5110629;28;20039;-76
2024/01/27 05:14:18;;;;;;;13.18;7.30;;;6.40;99.90;;;;;;5109023;28;20039;-75
2024/01/27 05:16:46;;;;;;;13.00;7.40;;;6.30;99.90;;;;;;5104188;28;20035;-77
2024/01/27 05:19:16;;;;;;;13.65;6.82;;;6.30;1.00;;;;;;5102906;28;20075;-76
2024/01/27 05:21:44;;;;;;;14.63;6.40;;;6.20;1.00;;;;;;5111907;28;20058;-78
2024/01/27 05:24:11;;;;;;;14.77;7.32;;;6.20;1.00;;;;;;5123521;28;20036;-76
2024/01/27 05:26:39;;;;;;;13.23;6.32;;;6.10;1.00;;;;;;5106580;28;20046;-75
2024/01/27 05:29:08;;;;;;;13.52;7.35;;;6.00;1.00;;;;;;5105281;28;20047;-75
2024/01/27 05:31:35;;;;;;;13.30;7.70;;;6.00;1.00;;;;;;5103783;28;20457;-74
2024/01/27 05:34:04;;;;;;;15.63;7.05;;;6.00;1.00;;;;;;5118842;28;20203;-75
2024/01/27 05:36:33;;;;;;;16.55;8.00;;;5.90;1.00;;;;;;5121601;28;20039;-75
2024/01/27 05:39:03;;;;;;;15.15;6.78;;;5.90;1.00;;;;;;5115052;28;20081;-76
2024/01/27 05:41:31;;;;;;;14.50;8.48;;;5.80;1.00;;;;;;5113373;28;20047;-76
2024/01/27 05:43:59;;;;;;;19.30;9.43;;;5.80;1.00;;;;;;5102034;28;20027;-75
2024/01/27 05:46:26;;;;;;;14.48;8.30;;;5.70;1.00;;;;;;5087007;28;20381;-76
2024/01/27 05:48:57;;;;;;;18.52;9.80;;;5.70;1.00;;;;;;5120084;28;20061;-76
2024/01/27 05:51:25;;;;;;;20.45;10.32;;;5.60;1.00;;;;;;5122718;28;20398;-75
2024/01/27 05:53:55;;;;;;;18.80;10.55;;;5.60;1.00;;;;;;5103765;28;20582;-75
2024/01/27 05:56:24;;;;;;;18.92;9.93;;;5.50;1.00;;;;;;5101911;28;20040;-75
2024/01/27 05:58:54;;;;;;;23.08;11.77;;;5.40;1.00;;;;;;5111744;28;20031;-76
2024/01/27 06:01:23;;;;;;;21.05;11.52;;;5.40;1.00;;;;;;5117797;28;20063;-78
2024/01/27 06:03:51;;;;;;;21.42;10.20;;;5.30;27.70;;;;;;5115837;28;20039;-75
2024/01/27 06:06:18;;;;;;;19.38;10.98;;;5.30;99.90;;;;;;5102016;28;20032;-75
2024/01/27 06:08:45;;;;;;;28.05;15.50;;;5.20;99.90;;;;;;5101030;28;20037;-75
2024/01/27 06:11:15;;;;;;;27.48;16.95;;;5.30;43.20;;;;;;5117663;28;20043;-76
2024/01/27 06:13:43;;;;;;;29.08;17.33;;;5.20;53.90;;;;;;5105543;28;20067;-74
2024/01/27 06:16:11;;;;;;;29.08;15.77;;;5.10;99.90;;;;;;5085646;28;20039;-74
2024/01/27 06:18:38;;;;;;;21.02;11.27;;;5.10;99.90;;;;;;5101869;28;20130;-75
2024/01/27 06:21:07;;;;;;;25.33;13.80;;;5.10;1.00;;;;;;5101508;28;20052;-76
2024/01/27 06:23:34;;;;;;;28.42;16.70;;;5.20;1.00;;;;;;5085278;28;20543;-76
2024/01/27 06:26:06;;;;;;;29.88;18.38;;;5.20;1.00;;;;;;5108751;28;20028;-74
2024/01/27 06:28:35;;;;;;;36.85;20.52;;;5.10;1.00;;;;;;5121734;28;20024;-74
2024/01/27 06:31:03;;;;;;;54.75;26.98;;;5.00;1.00;;;;;;5121411;28;20028;-75
2024/01/27 06:33:31;;;;;;;53.72;26.33;;;5.00;99.90;;;;;;5104878;28;20052;-74
2024/01/27 06:35:58;;;;;;;80.55;35.95;;;4.90;99.90;;;;;;5104746;28;20101;-76
2024/01/27 06:38:27;;;;;;;70.22;33.55;;;4.90;99.90;;;;;;5082449;28;20051;-75
2024/01/27 06:40:55;;;;;;;67.47;33.03;;;4.90;99.90;;;;;;5101575;28;20101;-76
2024/01/27 06:43:22;;;;;;;68.40;32.08;;;5.00;99.90;;;;;;5102521;28;20032;-75
2024/01/27 06:45:52;;;;;;;55.78;27.88;;;5.00;99.90;;;;;;5100547;28;20728;-75
2024/01/27 06:48:20;;;;;;;52.45;28.38;;;5.10;1.00;;;;;;5098495;28;20044;-75
2024/01/27 06:50:47;;;;;;;55.65;29.35;;;5.00;1.00;;;;;;5100152;28;20055;-74
2024/01/27 06:53:15;;;;;;;51.53;30.35;;;5.10;1.00;;;;;;5100249;28;20494;-75
2024/01/27 06:55:42;;;;;;;58.33;31.90;;;5.20;1.00;;;;;;5101195;28;20097;-75
2024/01/27 06:58:10;;;;;;;66.32;38.15;;;5.30;1.00;;;;;;5096943;28;20082;-75
2024/01/27 07:00:39;;;;;;;70.47;38.95;;;5.40;1.00;;;;;;5100922;28;20051;-75
2024/01/27 07:03:09;;;;;;;75.80;39.75;;;5.60;1.00;;;;;;5099754;28;20089;-74
2024/01/27 07:05:38;;;;;;;83.00;44.47;;;5.90;1.00;;;;;;5099296;28;20090;-75
2024/01/27 07:08:07;;;;;;;98.38;51.13;;;6.10;1.00;;;;;;5100036;28;20067;-74
2024/01/27 07:10:34;;;;;;;79.40;44.20;;;6.10;99.90;;;;;;5082194;28;20058;-74
2024/01/27 07:13:02;;;;;;;80.82;42.00;;;6.20;99.90;;;;;;5100918;28;20668;-75
2024/01/27 07:15:29;;;;;;;74.30;41.05;;;6.30;99.90;;;;;;5102352;28;20439;-75
2024/01/27 07:17:57;;;;;;;72.93;42.45;;;6.40;99.90;;;;;;5100328;28;20032;-74
2024/01/27 07:20:26;;;;;;;78.13;42.95;;;6.50;96.30;;;;;;5100783;28;20067;-75
2024/01/27 07:22:53;;;;;;;74.53;42.90;;;6.60;1.00;;;;;;5101703;28;20498;-75
2024/01/27 07:25:20;;;;;;;73.03;40.38;;;6.50;1.00;;;;;;5102404;28;20063;-73
2024/01/27 07:27:48;;;;;;;78.70;45.17;;;6.60;1.00;;;;;;5109376;28;20047;-74
2024/01/27 07:30:16;;;;;;;87.15;49.95;;;6.90;1.00;;;;;;5107134;28;20494;-74
2024/01/27 07:32:44;;;;;;;111.97;62.30;;;7.20;1.00;;;;;;5103761;28;20127;-74
2024/01/27 07:35:11;;;;;;;97.20;54.15;;;7.30;1.00;;;;;;5102983;28;20032;-75
2024/01/27 07:37:40;;;;;;;87.20;50.92;;;7.40;1.00;;;;;;5101114;28;20040;-73
2024/01/27 07:40:08;;;;;;;62.72;35.10;;;7.70;1.00;;;;;;5099834;28;20109;-77
2024/01/27 07:42:37;;;;;;;69.40;38.17;;;7.80;1.00;;;;;;5099774;28;20154;-76
2024/01/27 07:45:06;;;;;;;64.38;36.38;;;8.10;1.00;;;;;;5101375;28;20043;-76
2024/01/27 07:47:34;;;;;;;59.03;35.30;;;8.20;1.00;;;;;;5102700;28;20043;-75
2024/01/27 07:50:01;;;;;;;48.75;28.63;;;8.00;1.00;;;;;;5102888;28;20143;-75
2024/01/27 07:52:29;;;;;;;53.15;28.90;;;8.10;1.00;;;;;;5081004;28;20052;-75
2024/01/27 07:54:57;;;;;;;46.22;28.70;;;8.30;1.00;;;;;;5105354;28;20085;-75
2024/01/27 07:57:25;;;;;;;34.63;18.25;;;8.30;1.00;;;;;;5103459;28;20131;-74
2024/01/27 07:59:53;;;;;;;22.45;12.40;;;8.20;1.00;;;;;;5104326;28;20068;-74
2024/01/27 08:02:21;;;;;;;17.38;9.70;;;8.30;1.00;;;;;;5097488;22;20095;-77
2024/01/27 08:04:48;;;;;;;11.65;6.25;;;8.50;1.00;;;;;;5115135;28;20032;-80
2024/01/27 08:07:16;;;;;;;17.15;8.95;;;8.60;1.00;;;;;;5113748;28;20446;-80
2024/01/27 08:09:44;;;;;;;20.27;10.15;;;8.80;1.00;;;;;;5108956;28;20035;-78
2024/01/27 08:12:13;;;;;;;18.55;10.60;;;9.00;1.00;;;;;;5107862;28;20067;-81
2024/01/27 08:14:41;;;;;;;6.43;2.95;;;8.90;1.00;;;;;;5106854;28;20398;-78
2024/01/27 08:17:10;;;;;;;6.63;2.88;;;9.00;1.00;;;;;;5103902;28;20035;-80
2024/01/27 08:19:37;;;;;;;5.47;2.78;;;9.10;1.00;;;;;;5102617;28;20036;-79
2024/01/27 08:22:05;;;;;;;5.38;3.08;;;9.10;1.00;;;;;;5105076;28;20205;-80
2024/01/27 08:24:33;;;;;;;6.57;2.72;;;9.00;1.00;;;;;;5102399;28;20522;-80
2024/01/27 08:27:01;;;;;;;5.47;2.30;;;9.00;1.00;;;;;;5098975;28;20048;-78
2024/01/27 08:29:30;;;;;;;9.50;4.20;;;9.10;1.00;;;;;;5101838;28;20120;-76
2024/01/27 08:31:57;;;;;;;7.32;3.63;;;9.20;1.00;;;;;;5102719;28;20081;-79
2024/01/27 08:34:25;;;;;;;4.78;2.28;;;9.20;1.00;;;;;;5101211;28;20062;-78
2024/01/27 08:36:53;;;;;;;5.50;2.63;;;9.10;1.00;;;;;;5104696;28;20127;-77
2024/01/27 08:39:20;;;;;;;4.40;2.47;;;9.30;1.00;;;;;;5102367;28;20066;-79
2024/01/27 08:41:49;;;;;;;7.18;2.38;;;9.40;1.00;;;;;;5099821;28;20419;-79
2024/01/27 08:44:16;;;;;;;3.65;1.35;;;9.30;1.00;;;;;;5101701;28;20118;-80
2024/01/27 08:46:45;;;;;;;3.22;1.40;;;9.00;1.00;;;;;;5104518;28;20086;-78
2024/01/27 08:49:13;;;;;;;7.07;3.85;;;9.00;1.00;;;;;;5101870;28;20105;-81
2024/01/27 08:51:40;;;;;;;8.57;2.30;;;9.10;1.00;;;;;;5101374;28;20047;-79
2024/01/27 08:54:07;;;;;;;8.45;2.90;;;9.00;1.00;;;;;;5103602;28;20525;-79
2024/01/27 08:56:39;;;;;;;5.82;1.55;;;9.20;1.00;;;;;;5103376;28;20380;-78
2024/01/27 08:59:07;;;;;;;3.72;1.30;;;9.20;1.00;;;;;;5103600;28;20110;-80
2024/01/27 09:01:34;;;;;;;3.40;1.35;;;8.90;1.00;;;;;;5102891;28;20088;-78
2024/01/27 09:04:03;;;;;;;5.03;2.13;;;8.60;1.00;;;;;;5116289;27;20099;-78
2024/01/27 09:06:31;;;;;;;9.82;2.00;;;8.60;1.00;;;;;;5121763;27;20063;-80
2024/01/27 09:08:58;;;;;;;6.22;1.63;;;8.80;1.00;;;;;;5123568;27;20698;-80
2024/01/27 09:11:27;;;;;;;5.22;1.80;;;8.90;1.00;;;;;;5121853;27;20081;-79
2024/01/27 09:13:54;;;;;;;14.27;2.50;;;9.10;1.00;;;;;;5105312;27;20490;-80
2024/01/27 09:16:21;;;;;;;9.43;2.25;;;9.20;1.00;;;;;;5123863;27;20066;-77
2024/01/27 09:18:50;;;;;;;4.45;1.33;;;9.30;1.00;;;;;;5120468;27;20040;-80
2024/01/27 09:21:20;;;;;;;2.95;1.30;;;9.20;1.00;;;;;;5123218;27;20027;-82
2024/01/27 09:23:48;;;;;;;4.07;1.00;;;8.90;1.00;;;;;;5105572;27;20096;-82
2024/01/27 09:26:15;;;;;;;4.43;1.38;;;8.80;1.00;;;;;;5122709;27;20051;-81
2024/01/27 09:28:43;;;;;;;8.90;2.47;;;8.90;1.00;;;;;;5105286;27;20108;-80
2024/01/27 09:31:11;;;;;;;8.35;2.15;;;9.00;1.00;;;;;;5123336;27;20054;-82
2024/01/27 09:33:39;;;;;;;5.47;1.80;;;9.10;1.00;;;;;;5124074;27;20043;-81
2024/01/27 09:36:07;;;;;;;7.15;2.05;;;9.20;1.00;;;;;;5123101;27;20044;-81
2024/01/27 09:38:35;;;;;;;4.90;1.65;;;9.20;1.00;;;;;;5124023;27;20176;-79
2024/01/27 09:41:03;;;;;;;8.05;1.50;;;9.30;1.00;;;;;;5123349;27;20490;-79
2024/01/27 09:43:32;;;;;;;5.72;2.30;;;9.30;1.00;;;;;;5123422;27;20042;-79
2024/01/27 09:45:59;;;;;;;5.68;1.35;;;9.20;1.00;;;;;;5124443;27;20248;-79
2024/01/27 09:48:28;;;;;;;6.90;2.00;;;9.20;1.00;;;;;;5121914;27;20043;-79
2024/01/27 09:50:57;;;;;;;9.48;3.50;;;9.30;1.00;;;;;;5122247;27;20063;-78
2024/01/27 09:53:24;;;;;;;4.78;1.50;;;9.50;1.00;;;;;;5123925;27;20111;-79
2024/01/27 09:55:56;;;;;;;6.82;2.55;;;9.70;1.00;;;;;;5124095;27;20039;-81
2024/01/27 09:58:26;;;;;;;6.65;2.22;;;9.70;1.00;;;;;;5103499;27;20061;-79
2024/01/27 10:00:55;;;;;;;3.38;1.30;;;9.60;1.00;;;;;;5123174;27;20035;-81
2024/01/27 10:03:23;;;;;;;11.88;2.20;;;9.50;1.00;;;;;;5127293;27;20051;-81
2024/01/27 10:05:52;;;;;;;8.32;2.17;;;9.40;1.00;;;;;;5138380;27;20054;-80
2024/01/27 10:08:21;;;;;;;8.25;2.20;;;9.60;1.00;;;;;;5138971;27;20538;-84
2024/01/27 10:10:54;;;;;;;11.85;3.28;;;9.70;1.00;;;;;;5133464;27;20039;-82
2024/01/27 10:13:26;;;;;;;5.45;1.50;;;9.80;1.00;;;;;;5131541;27;20466;-80
2024/01/27 10:16:04;;;;;;;9.63;3.92;;;9.90;1.00;;;;;;5110449;28;20134;-78
2024/01/27 10:18:32;;;;;;;12.15;3.00;;;10.10;1.00;;;;;;5124190;27;20387;-80
2024/01/27 10:21:00;;;;;;;5.43;1.90;;;10.20;1.00;;;;;;5122657;27;20051;-77
2024/01/27 10:23:27;;;;;;;10.75;4.20;;;10.10;1.00;;;;;;5103514;27;20170;-79
2024/01/27 10:25:57;;;;;;;8.15;2.55;;;10.00;1.00;;;;;;5123219;27;20043;-79
2024/01/27 10:28:27;;;;;;;6.72;3.38;;;10.00;1.00;;;;;;5122103;27;20051;-78
2024/01/27 10:30:54;;;;;;;4.72;1.60;;;9.70;1.00;;;;;;5121134;27;20446;-76
2024/01/27 10:33:22;;;;;;;12.05;4.50;;;9.80;1.00;;;;;;5103525;27;20073;-77
2024/01/27 10:35:59;;;;;;;7.15;2.70;;;9.80;1.00;;;;;;5122256;27;20039;-76
2024/01/27 10:38:35;;;;;;;6.72;2.03;;;9.90;1.00;;;;;;5121688;27;20100;-78
2024/01/27 10:41:05;;;;;;;6.82;2.05;;;9.70;1.00;;;;;;5123287;27;20036;-76
2024/01/27 10:43:35;;;;;;;2.45;1.05;;;9.80;1.00;;;;;;5123163;27;20117;-79
2024/01/27 10:46:05;;;;;;;5.85;2.17;;;9.60;1.00;;;;;;5121890;27;20181;-76
2024/01/27 10:48:33;;;;;;;5.78;2.22;;;9.70;1.00;;;;;;5121189;27;20040;-77
2024/01/27 10:51:04;;;;;;;6.60;1.95;;;9.80;1.00;;;;;;5121128;27;20048;-78
2024/01/27 10:53:35;;;;;;;5.43;2.08;;;9.60;1.00;;;;;;5122706;27;20035;-76
2024/01/27 10:56:07;;;;;;;8.63;2.30;;;9.70;1.00;;;;;;5122490;27;20040;-75
2024/01/27 10:58:40;;;;;;;5.88;2.03;;;9.80;1.00;;;;;;5123781;27;20043;-75
2024/01/27 11:01:10;;;;;;;6.88;1.92;;;9.90;1.00;;;;;;5122336;27;20059;-77
2024/01/27 11:03:39;;;;;;;8.40;2.63;;;9.90;1.00;;;;;;5117166;27;20059;-76
2024/01/27 11:06:07;;;;;;;9.82;7.07;;;10.00;1.00;;;;;;5118929;27;20415;-77
2024/01/27 11:08:35;;;;;;;16.65;4.78;;;10.00;1.00;;;;;;5125617;27;20082;-74
2024/01/27 11:11:03;;;;;;;4.65;2.55;;;10.10;1.00;;;;;;5121663;27;20046;-76
2024/01/27 11:13:33;;;;;;;4.70;2.00;;;10.30;1.00;;;;;;5119248;27;20111;-79
2024/01/27 11:16:02;;;;;;;6.95;2.05;;;10.30;1.00;;;;;;5103005;28;20082;-77
2024/01/27 11:18:31;;;;;;;4.75;1.52;;;10.30;1.00;;;;;;5118999;28;20043;-77
2024/01/27 11:21:00;;;;;;;7.93;2.55;;;10.40;1.00;;;;;;5102783;28;20043;-77
2024/01/27 11:23:34;;;;;;;5.50;1.63;;;10.40;1.00;;;;;;5132872;28;20055;-78
2024/01/27 11:26:06;;;;;;;5.32;1.92;;;10.30;1.00;;;;;;5132474;28;20040;-78
2024/01/27 11:28:33;;;;;;;6.20;2.40;;;10.20;1.00;;;;;;5133094;27;20035;-77
2024/01/27 11:31:06;;;;;;;7.32;2.25;;;10.30;1.00;;;;;;5113036;27;20448;-76
2024/01/27 11:33:34;;;;;;;7.45;2.47;;;10.30;1.00;;;;;;5126487;27;20079;-77
2024/01/27 11:36:04;;;;;;;5.78;2.35;;;10.30;1.00;;;;;;5127358;27;20036;-77
2024/01/27 11:38:32;;;;;;;7.13;3.42;;;10.30;1.00;;;;;;5126766;27;20039;-79
2024/01/27 11:41:01;;;;;;;8.82;3.53;;;10.30;1.00;;;;;;5125524;27;20031;-79
2024/01/27 11:43:29;;;;;;;10.68;5.03;;;10.40;1.00;;;;;;5127088;27;20089;-77
2024/01/27 11:46:07;;;;;;;11.98;6.25;;;10.30;1.00;;;;;;5124998;27;20038;-78
2024/01/27 11:48:43;;;;;;;6.45;1.70;;;10.40;1.00;;;;;;5126309;27;20054;-76
2024/01/27 11:51:12;;;;;;;7.93;2.67;;;10.50;1.00;;;;;;5127577;27;20540;-79
2024/01/27 11:53:40;;;;;;;8.27;3.10;;;10.50;1.00;;;;;;5127570;27;20047;-79
2024/01/27 11:56:08;;;;;;;4.65;1.83;;;10.50;1.00;;;;;;5126227;27;20035;-79
2024/01/27 11:58:35;;;;;;;4.68;1.90;;;10.40;1.00;;;;;;5106034;27;20051;-79
2024/01/27 12:01:03;;;;;;;6.82;2.30;;;10.30;1.00;;;;;;5126680;27;20040;-79
2024/01/27 12:03:34;;;;;;;5.68;2.00;;;10.20;1.00;;;;;;5127372;27;20047;-77
2024/01/27 12:06:01;;;;;;;9.80;4.20;;;10.20;1.00;;;;;;5126149;27;20051;-79
2024/01/27 12:08:29;;;;;;;7.82;2.90;;;10.30;1.00;;;;;;5124693;27;20856;-77
2024/01/27 12:10:56;;;;;;;8.70;3.65;;;10.30;1.00;;;;;;5106907;27;20058;-78
2024/01/27 12:13:24;;;;;;;11.45;5.10;;;10.30;1.00;;;;;;5122748;27;20035;-80
2024/01/27 12:15:51;;;;;;;12.88;7.60;;;10.40;1.00;;;;;;5126788;27;20545;-77
2024/01/27 12:18:19;;;;;;;8.38;3.78;;;10.30;1.00;;;;;;5126486;27;20057;-79
2024/01/27 12:20:49;;;;;;;12.95;5.30;;;10.30;1.00;;;;;;5124620;27;20027;-78
2024/01/27 12:23:16;;;;;;;15.57;4.60;;;10.40;1.00;;;;;;5125650;27;20043;-79
2024/01/27 12:25:53;;;;;;;11.45;4.43;;;10.40;1.00;;;;;;5124007;27;20045;-80
2024/01/27 12:28:20;;;;;;;13.20;6.00;;;10.50;1.00;;;;;;5123550;27;20075;-79
2024/01/27 12:30:49;;;;;;;15.18;7.93;;;10.30;1.00;;;;;;5125275;27;20115;-79
2024/01/27 12:33:19;;;;;;;8.73;4.82;;;10.30;1.00;;;;;;5125018;27;20044;-78
2024/01/27 12:35:48;;;;;;;7.95;3.92;;;10.40;1.00;;;;;;5132255;27;20119;-77
2024/01/27 12:38:16;;;;;;;12.73;4.38;;;10.50;1.00;;;;;;5142296;27;20043;-79
2024/01/27 12:40:43;;;;;;;11.88;4.63;;;10.40;1.00;;;;;;5139821;27;20069;-80
2024/01/27 12:43:12;;;;;;;8.43;3.25;;;10.30;1.00;;;;;;5145231;27;20107;-80
2024/01/27 12:45:39;;;;;;;11.48;3.38;;;10.10;1.00;;;;;;5141737;27;20039;-78
2024/01/27 12:48:07;;;;;;;13.38;5.25;;;10.30;1.00;;;;;;5144659;27;20054;-80
2024/01/27 12:50:36;;;;;;;7.57;2.65;;;10.20;1.00;;;;;;5133606;27;20047;-79
2024/01/27 12:53:05;;;;;;;10.35;3.45;;;10.20;1.00;;;;;;5125896;27;20063;-79
2024/01/27 12:55:35;;;;;;;7.60;3.90;;;10.30;1.00;;;;;;5125055;27;20081;-79
2024/01/27 12:58:02;;;;;;;7.28;3.75;;;10.40;1.00;;;;;;5122586;27;20095;-78